sensor_id;sensor_type;location;lat;lon;timestamp;P1;durP1;ratioP1;P2;durP2;ratioP2
31966;SDS011;18496;52.042;6.812;2022-11-20T00:01:13;50.85;;;20.35;;
31966;SDS011;18496;52.042;6.812;2022-11-20T00:03:17;44.47;;;19.77;;
31966;SDS011;18496;52.042;6.812;2022-11-20T00:05:21;48.58;;;19.92;;
31966;SDS011;18496;52.042;6.812;2022-11-20T00:07:24;48.08;;;20.75;;
31966;SDS011;18496;52.042;6.812;2022-11-20T00:09:28;44.63;;;19.67;;
31966;SDS011;18496;52.042;6.812;2022-11-20T00:11:32;48.20;;;20.20;;
31966;SDS011;18496;52.042;6.812;2022-11-20T00:13:36;42.55;;;17.73;;
31966;SDS011;18496;52.042;6.812;2022-11-20T00:15:39;39.33;;;18.08;;
31966;SDS011;18496;52.042;6.812;2022-11-20T00:17:43;37.58;;;17.85;;
31966;SDS011;18496;52.042;6.812;2022-11-20T00:19:46;41.42;;;18.30;;
31966;SDS011;18496;52.042;6.812;2022-11-20T00:21:50;47.42;;;18.75;;
31966;SDS011;18496;52.042;6.812;2022-11-20T00:23:56;47.85;;;18.27;;
31966;SDS011;18496;52.042;6.812;2022-11-20T00:26:04;39.92;;;18.85;;
31966;SDS011;18496;52.042;6.812;2022-11-20T00:28:09;39.80;;;17.95;;
31966;SDS011;18496;52.042;6.812;2022-11-20T00:30:13;37.70;;;17.58;;
31966;SDS011;18496;52.042;6.812;2022-11-20T00:32:17;43.67;;;17.88;;
31966;SDS011;18496;52.042;6.812;2022-11-20T00:34:20;39.20;;;18.13;;
31966;SDS011;18496;52.042;6.812;2022-11-20T00:36:25;40.85;;;16.90;;
31966;SDS011;18496;52.042;6.812;2022-11-20T00:38:31;35.10;;;15.20;;
31966;SDS011;18496;52.042;6.812;2022-11-20T00:40:35;37.28;;;17.58;;
31966;SDS011;18496;52.042;6.812;2022-11-20T00:42:38;37.47;;;17.05;;
31966;SDS011;18496;52.042;6.812;2022-11-20T00:44:42;32.30;;;16.27;;
31966;SDS011;18496;52.042;6.812;2022-11-20T00:46:46;34.45;;;17.08;;
31966;SDS011;18496;52.042;6.812;2022-11-20T00:48:49;35.92;;;17.27;;
31966;SDS011;18496;52.042;6.812;2022-11-20T00:50:53;37.38;;;18.65;;
31966;SDS011;18496;52.042;6.812;2022-11-20T00:52:57;37.42;;;17.58;;
31966;SDS011;18496;52.042;6.812;2022-11-20T00:55:00;38.05;;;16.85;;
31966;SDS011;18496;52.042;6.812;2022-11-20T00:57:04;47.70;;;18.95;;
31966;SDS011;18496;52.042;6.812;2022-11-20T00:59:08;37.10;;;16.55;;
31966;SDS011;18496;52.042;6.812;2022-11-20T01:03:21;39.65;;;16.92;;
31966;SDS011;18496;52.042;6.812;2022-11-20T01:05:24;51.85;;;21.02;;
31966;SDS011;18496;52.042;6.812;2022-11-20T01:07:28;77.38;;;29.58;;
31966;SDS011;18496;52.042;6.812;2022-11-20T01:09:32;91.80;;;31.08;;
31966;SDS011;18496;52.042;6.812;2022-11-20T01:11:36;99.75;;;32.25;;
31966;SDS011;18496;52.042;6.812;2022-11-20T01:13:42;97.30;;;32.75;;
31966;SDS011;18496;52.042;6.812;2022-11-20T01:15:48;68.03;;;25.90;;
31966;SDS011;18496;52.042;6.812;2022-11-20T01:17:51;60.28;;;23.55;;
31966;SDS011;18496;52.042;6.812;2022-11-20T01:19:55;59.13;;;23.10;;
31966;SDS011;18496;52.042;6.812;2022-11-20T01:21:58;53.42;;;21.90;;
31966;SDS011;18496;52.042;6.812;2022-11-20T01:24:03;41.97;;;20.42;;
31966;SDS011;18496;52.042;6.812;2022-11-20T01:26:09;55.55;;;24.00;;
31966;SDS011;18496;52.042;6.812;2022-11-20T01:28:17;78.20;;;27.58;;
31966;SDS011;18496;52.042;6.812;2022-11-20T01:30:21;77.13;;;28.42;;
31966;SDS011;18496;52.042;6.812;2022-11-20T01:32:25;75.63;;;26.10;;
31966;SDS011;18496;52.042;6.812;2022-11-20T01:34:28;85.88;;;31.40;;
31966;SDS011;18496;52.042;6.812;2022-11-20T01:36:33;88.60;;;32.20;;
31966;SDS011;18496;52.042;6.812;2022-11-20T01:38:38;119.10;;;42.65;;
31966;SDS011;18496;52.042;6.812;2022-11-20T01:40:42;101.65;;;37.03;;
31966;SDS011;18496;52.042;6.812;2022-11-20T01:42:52;99.28;;;33.67;;
31966;SDS011;18496;52.042;6.812;2022-11-20T01:47:59;75.68;;;30.67;;
31966;SDS011;18496;52.042;6.812;2022-11-20T01:50:04;87.15;;;30.80;;
31966;SDS011;18496;52.042;6.812;2022-11-20T01:52:20;76.13;;;31.10;;
31966;SDS011;18496;52.042;6.812;2022-11-20T01:54:32;81.35;;;31.33;;
31966;SDS011;18496;52.042;6.812;2022-11-20T01:56:42;89.80;;;33.90;;
31966;SDS011;18496;52.042;6.812;2022-11-20T01:58:50;76.30;;;31.60;;
31966;SDS011;18496;52.042;6.812;2022-11-20T02:00:59;101.90;;;34.85;;
31966;SDS011;18496;52.042;6.812;2022-11-20T02:03:04;60.60;;;27.38;;
31966;SDS011;18496;52.042;6.812;2022-11-20T02:07:34;75.43;;;27.23;;
31966;SDS011;18496;52.042;6.812;2022-11-20T02:09:38;64.82;;;25.48;;
31966;SDS011;18496;52.042;6.812;2022-11-20T02:11:42;79.72;;;28.25;;
31966;SDS011;18496;52.042;6.812;2022-11-20T02:13:46;91.22;;;31.73;;
31966;SDS011;18496;52.042;6.812;2022-11-20T02:15:51;134.45;;;41.20;;
31966;SDS011;18496;52.042;6.812;2022-11-20T02:17:54;181.82;;;45.97;;
31966;SDS011;18496;52.042;6.812;2022-11-20T02:19:58;166.35;;;49.20;;
31966;SDS011;18496;52.042;6.812;2022-11-20T02:22:05;171.20;;;44.00;;
31966;SDS011;18496;52.042;6.812;2022-11-20T02:24:24;166.93;;;45.28;;
31966;SDS011;18496;52.042;6.812;2022-11-20T02:26:28;127.05;;;38.80;;
31966;SDS011;18496;52.042;6.812;2022-11-20T02:28:33;131.05;;;39.55;;
31966;SDS011;18496;52.042;6.812;2022-11-20T02:30:38;141.88;;;41.17;;
31966;SDS011;18496;52.042;6.812;2022-11-20T02:32:41;126.97;;;36.45;;
31966;SDS011;18496;52.042;6.812;2022-11-20T02:34:45;96.03;;;33.42;;
31966;SDS011;18496;52.042;6.812;2022-11-20T02:36:49;82.05;;;29.73;;
31966;SDS011;18496;52.042;6.812;2022-11-20T02:38:55;73.22;;;24.55;;
31966;SDS011;18496;52.042;6.812;2022-11-20T02:40:58;56.55;;;20.77;;
31966;SDS011;18496;52.042;6.812;2022-11-20T02:43:02;51.90;;;22.77;;
31966;SDS011;18496;52.042;6.812;2022-11-20T02:45:06;58.78;;;22.77;;
31966;SDS011;18496;52.042;6.812;2022-11-20T02:47:10;56.83;;;21.17;;
31966;SDS011;18496;52.042;6.812;2022-11-20T02:49:14;52.90;;;19.77;;
31966;SDS011;18496;52.042;6.812;2022-11-20T02:51:17;55.45;;;20.15;;
31966;SDS011;18496;52.042;6.812;2022-11-20T02:53:21;58.13;;;21.88;;
31966;SDS011;18496;52.042;6.812;2022-11-20T02:55:24;60.75;;;22.88;;
31966;SDS011;18496;52.042;6.812;2022-11-20T02:57:28;64.88;;;21.80;;
31966;SDS011;18496;52.042;6.812;2022-11-20T02:59:32;50.67;;;19.33;;
31966;SDS011;18496;52.042;6.812;2022-11-20T03:01:35;51.90;;;20.38;;
31966;SDS011;18496;52.042;6.812;2022-11-20T03:03:39;49.75;;;19.88;;
31966;SDS011;18496;52.042;6.812;2022-11-20T03:05:43;41.63;;;19.30;;
31966;SDS011;18496;52.042;6.812;2022-11-20T03:07:46;56.55;;;22.33;;
31966;SDS011;18496;52.042;6.812;2022-11-20T03:09:50;58.95;;;23.83;;
31966;SDS011;18496;52.042;6.812;2022-11-20T03:11:54;58.67;;;22.83;;
31966;SDS011;18496;52.042;6.812;2022-11-20T03:13:57;55.95;;;23.55;;
31966;SDS011;18496;52.042;6.812;2022-11-20T03:16:06;64.82;;;24.27;;
31966;SDS011;18496;52.042;6.812;2022-11-20T03:18:11;56.05;;;23.98;;
31966;SDS011;18496;52.042;6.812;2022-11-20T03:20:16;54.38;;;21.17;;
31966;SDS011;18496;52.042;6.812;2022-11-20T03:22:20;46.67;;;19.90;;
31966;SDS011;18496;52.042;6.812;2022-11-20T03:24:23;52.67;;;23.13;;
31966;SDS011;18496;52.042;6.812;2022-11-20T03:26:27;46.08;;;20.88;;
31966;SDS011;18496;52.042;6.812;2022-11-20T03:28:31;38.03;;;18.15;;
31966;SDS011;18496;52.042;6.812;2022-11-20T03:30:35;40.15;;;18.40;;
31966;SDS011;18496;52.042;6.812;2022-11-20T03:32:38;43.10;;;19.30;;
31966;SDS011;18496;52.042;6.812;2022-11-20T03:34:42;46.33;;;19.38;;
31966;SDS011;18496;52.042;6.812;2022-11-20T03:36:46;39.13;;;19.40;;
31966;SDS011;18496;52.042;6.812;2022-11-20T03:38:56;40.58;;;19.02;;
31966;SDS011;18496;52.042;6.812;2022-11-20T03:41:09;38.25;;;19.27;;
31966;SDS011;18496;52.042;6.812;2022-11-20T03:43:21;36.10;;;17.50;;
31966;SDS011;18496;52.042;6.812;2022-11-20T03:45:33;35.13;;;16.13;;
31966;SDS011;18496;52.042;6.812;2022-11-20T03:47:39;36.42;;;16.55;;
31966;SDS011;18496;52.042;6.812;2022-11-20T03:49:47;37.13;;;16.35;;
31966;SDS011;18496;52.042;6.812;2022-11-20T03:51:50;30.50;;;15.90;;
31966;SDS011;18496;52.042;6.812;2022-11-20T03:53:56;42.80;;;18.70;;
31966;SDS011;18496;52.042;6.812;2022-11-20T03:56:01;47.42;;;21.25;;
31966;SDS011;18496;52.042;6.812;2022-11-20T03:58:04;39.20;;;18.13;;
31966;SDS011;18496;52.042;6.812;2022-11-20T04:00:14;37.33;;;16.80;;
31966;SDS011;18496;52.042;6.812;2022-11-20T04:02:20;35.53;;;16.58;;
31966;SDS011;18496;52.042;6.812;2022-11-20T04:04:24;36.30;;;15.90;;
31966;SDS011;18496;52.042;6.812;2022-11-20T04:06:28;33.88;;;15.18;;
31966;SDS011;18496;52.042;6.812;2022-11-20T04:08:34;34.90;;;15.75;;
31966;SDS011;18496;52.042;6.812;2022-11-20T04:10:38;33.55;;;17.20;;
31966;SDS011;18496;52.042;6.812;2022-11-20T04:12:41;32.00;;;15.63;;
31966;SDS011;18496;52.042;6.812;2022-11-20T04:14:45;32.00;;;14.90;;
31966;SDS011;18496;52.042;6.812;2022-11-20T04:16:49;33.83;;;15.68;;
31966;SDS011;18496;52.042;6.812;2022-11-20T04:18:52;27.42;;;13.82;;
31966;SDS011;18496;52.042;6.812;2022-11-20T04:20:57;28.92;;;13.43;;
31966;SDS011;18496;52.042;6.812;2022-11-20T04:23:01;29.08;;;15.50;;
31966;SDS011;18496;52.042;6.812;2022-11-20T04:25:05;26.98;;;14.38;;
31966;SDS011;18496;52.042;6.812;2022-11-20T04:27:09;35.85;;;17.65;;
31966;SDS011;18496;52.042;6.812;2022-11-20T04:29:12;43.55;;;20.25;;
31966;SDS011;18496;52.042;6.812;2022-11-20T04:31:17;42.45;;;18.98;;
31966;SDS011;18496;52.042;6.812;2022-11-20T04:33:23;35.47;;;15.88;;
31966;SDS011;18496;52.042;6.812;2022-11-20T04:35:26;29.95;;;14.90;;
31966;SDS011;18496;52.042;6.812;2022-11-20T04:37:30;32.30;;;16.17;;
31966;SDS011;18496;52.042;6.812;2022-11-20T04:39:34;32.08;;;15.00;;
31966;SDS011;18496;52.042;6.812;2022-11-20T04:41:38;27.13;;;13.82;;
31966;SDS011;18496;52.042;6.812;2022-11-20T04:43:41;26.50;;;12.55;;
31966;SDS011;18496;52.042;6.812;2022-11-20T04:45:53;29.02;;;13.20;;
31966;SDS011;18496;52.042;6.812;2022-11-20T04:47:58;24.85;;;12.70;;
31966;SDS011;18496;52.042;6.812;2022-11-20T04:50:02;31.02;;;13.00;;
31966;SDS011;18496;52.042;6.812;2022-11-20T04:52:05;25.42;;;12.88;;
31966;SDS011;18496;52.042;6.812;2022-11-20T04:54:10;31.77;;;13.90;;
31966;SDS011;18496;52.042;6.812;2022-11-20T04:56:14;32.33;;;16.13;;
31966;SDS011;18496;52.042;6.812;2022-11-20T04:58:19;34.05;;;16.05;;
31966;SDS011;18496;52.042;6.812;2022-11-20T05:00:22;34.53;;;16.73;;
31966;SDS011;18496;52.042;6.812;2022-11-20T05:02:26;32.53;;;16.20;;
31966;SDS011;18496;52.042;6.812;2022-11-20T05:04:30;33.70;;;18.00;;
31966;SDS011;18496;52.042;6.812;2022-11-20T05:06:34;30.42;;;14.77;;
31966;SDS011;18496;52.042;6.812;2022-11-20T05:08:37;30.95;;;16.15;;
31966;SDS011;18496;52.042;6.812;2022-11-20T05:10:41;31.35;;;13.95;;
31966;SDS011;18496;52.042;6.812;2022-11-20T05:12:47;23.77;;;12.73;;
31966;SDS011;18496;52.042;6.812;2022-11-20T05:14:51;27.92;;;12.10;;
31966;SDS011;18496;52.042;6.812;2022-11-20T05:16:55;25.52;;;13.85;;
31966;SDS011;18496;52.042;6.812;2022-11-20T05:18:58;27.17;;;12.23;;
31966;SDS011;18496;52.042;6.812;2022-11-20T05:21:02;25.08;;;11.35;;
31966;SDS011;18496;52.042;6.812;2022-11-20T05:23:06;25.40;;;11.80;;
31966;SDS011;18496;52.042;6.812;2022-11-20T05:25:10;26.83;;;12.27;;
31966;SDS011;18496;52.042;6.812;2022-11-20T05:27:14;23.90;;;13.10;;
31966;SDS011;18496;52.042;6.812;2022-11-20T05:29:18;26.85;;;13.48;;
31966;SDS011;18496;52.042;6.812;2022-11-20T05:31:23;26.70;;;14.07;;
31966;SDS011;18496;52.042;6.812;2022-11-20T05:33:27;30.00;;;14.75;;
31966;SDS011;18496;52.042;6.812;2022-11-20T05:35:31;27.95;;;14.27;;
31966;SDS011;18496;52.042;6.812;2022-11-20T05:37:35;37.00;;;16.00;;
31966;SDS011;18496;52.042;6.812;2022-11-20T05:39:38;31.00;;;15.35;;
31966;SDS011;18496;52.042;6.812;2022-11-20T05:41:42;35.80;;;15.52;;
31966;SDS011;18496;52.042;6.812;2022-11-20T05:43:46;32.85;;;16.25;;
31966;SDS011;18496;52.042;6.812;2022-11-20T05:45:54;31.70;;;14.90;;
31966;SDS011;18496;52.042;6.812;2022-11-20T05:48:01;29.70;;;14.68;;
31966;SDS011;18496;52.042;6.812;2022-11-20T05:50:04;38.08;;;15.93;;
31966;SDS011;18496;52.042;6.812;2022-11-20T05:52:08;32.75;;;15.75;;
31966;SDS011;18496;52.042;6.812;2022-11-20T05:54:12;34.08;;;14.40;;
31966;SDS011;18496;52.042;6.812;2022-11-20T05:56:17;31.20;;;15.20;;
31966;SDS011;18496;52.042;6.812;2022-11-20T05:58:22;32.95;;;15.30;;
31966;SDS011;18496;52.042;6.812;2022-11-20T06:00:26;30.38;;;14.75;;
31966;SDS011;18496;52.042;6.812;2022-11-20T06:02:29;29.95;;;14.60;;
31966;SDS011;18496;52.042;6.812;2022-11-20T06:04:33;31.98;;;14.95;;
31966;SDS011;18496;52.042;6.812;2022-11-20T06:06:37;29.58;;;13.63;;
31966;SDS011;18496;52.042;6.812;2022-11-20T06:08:40;27.80;;;13.25;;
31966;SDS011;18496;52.042;6.812;2022-11-20T06:10:44;30.13;;;14.63;;
31966;SDS011;18496;52.042;6.812;2022-11-20T06:12:48;33.00;;;14.60;;
31966;SDS011;18496;52.042;6.812;2022-11-20T06:14:51;28.00;;;13.68;;
31966;SDS011;18496;52.042;6.812;2022-11-20T06:16:55;26.35;;;14.18;;
31966;SDS011;18496;52.042;6.812;2022-11-20T06:18:58;32.10;;;14.77;;
31966;SDS011;18496;52.042;6.812;2022-11-20T06:21:03;32.42;;;16.13;;
31966;SDS011;18496;52.042;6.812;2022-11-20T06:23:08;36.38;;;16.05;;
31966;SDS011;18496;52.042;6.812;2022-11-20T06:25:12;35.70;;;17.23;;
31966;SDS011;18496;52.042;6.812;2022-11-20T06:27:16;35.83;;;16.42;;
31966;SDS011;18496;52.042;6.812;2022-11-20T06:29:20;36.55;;;16.48;;
31966;SDS011;18496;52.042;6.812;2022-11-20T06:31:24;35.80;;;15.13;;
31966;SDS011;18496;52.042;6.812;2022-11-20T06:33:29;35.42;;;15.48;;
31966;SDS011;18496;52.042;6.812;2022-11-20T06:35:32;32.33;;;15.25;;
31966;SDS011;18496;52.042;6.812;2022-11-20T06:37:36;28.25;;;14.23;;
31966;SDS011;18496;52.042;6.812;2022-11-20T06:39:40;29.30;;;15.00;;
31966;SDS011;18496;52.042;6.812;2022-11-20T06:41:43;34.90;;;16.80;;
31966;SDS011;18496;52.042;6.812;2022-11-20T06:43:47;37.58;;;17.23;;
31966;SDS011;18496;52.042;6.812;2022-11-20T06:45:55;34.97;;;15.70;;
31966;SDS011;18496;52.042;6.812;2022-11-20T06:47:59;32.40;;;15.35;;
31966;SDS011;18496;52.042;6.812;2022-11-20T06:50:03;35.60;;;16.35;;
31966;SDS011;18496;52.042;6.812;2022-11-20T06:52:07;31.17;;;14.82;;
31966;SDS011;18496;52.042;6.812;2022-11-20T06:54:11;35.20;;;16.38;;
31966;SDS011;18496;52.042;6.812;2022-11-20T06:56:14;29.35;;;15.75;;
31966;SDS011;18496;52.042;6.812;2022-11-20T06:58:18;32.20;;;16.60;;
31966;SDS011;18496;52.042;6.812;2022-11-20T07:00:22;31.30;;;15.38;;
31966;SDS011;18496;52.042;6.812;2022-11-20T07:02:26;32.78;;;17.13;;
31966;SDS011;18496;52.042;6.812;2022-11-20T07:04:29;36.03;;;16.33;;
31966;SDS011;18496;52.042;6.812;2022-11-20T07:06:33;37.63;;;16.55;;
31966;SDS011;18496;52.042;6.812;2022-11-20T07:08:37;33.17;;;16.17;;
31966;SDS011;18496;52.042;6.812;2022-11-20T07:10:41;30.73;;;14.50;;
31966;SDS011;18496;52.042;6.812;2022-11-20T07:12:48;26.45;;;13.65;;
31966;SDS011;18496;52.042;6.812;2022-11-20T07:14:53;29.77;;;14.52;;
31966;SDS011;18496;52.042;6.812;2022-11-20T07:16:57;35.15;;;14.60;;
31966;SDS011;18496;52.042;6.812;2022-11-20T07:19:01;37.40;;;17.05;;
31966;SDS011;18496;52.042;6.812;2022-11-20T07:21:05;30.35;;;15.75;;
31966;SDS011;18496;52.042;6.812;2022-11-20T07:23:11;32.97;;;16.92;;
31966;SDS011;18496;52.042;6.812;2022-11-20T07:25:14;30.35;;;15.77;;
31966;SDS011;18496;52.042;6.812;2022-11-20T07:27:18;32.30;;;17.35;;
31966;SDS011;18496;52.042;6.812;2022-11-20T07:29:21;34.80;;;15.27;;
31966;SDS011;18496;52.042;6.812;2022-11-20T07:31:25;33.83;;;15.50;;
31966;SDS011;18496;52.042;6.812;2022-11-20T07:33:29;31.63;;;15.80;;
31966;SDS011;18496;52.042;6.812;2022-11-20T07:35:33;34.78;;;17.40;;
31966;SDS011;18496;52.042;6.812;2022-11-20T07:37:36;40.45;;;18.92;;
31966;SDS011;18496;52.042;6.812;2022-11-20T07:39:40;59.88;;;27.40;;
31966;SDS011;18496;52.042;6.812;2022-11-20T07:41:44;113.93;;;47.55;;
31966;SDS011;18496;52.042;6.812;2022-11-20T07:43:47;123.35;;;52.22;;
31966;SDS011;18496;52.042;6.812;2022-11-20T07:45:51;136.05;;;59.97;;
31966;SDS011;18496;52.042;6.812;2022-11-20T07:47:55;97.57;;;46.92;;
31966;SDS011;18496;52.042;6.812;2022-11-20T07:49:58;61.45;;;28.17;;
31966;SDS011;18496;52.042;6.812;2022-11-20T07:52:02;43.33;;;20.23;;
31966;SDS011;18496;52.042;6.812;2022-11-20T07:54:06;34.13;;;16.60;;
31966;SDS011;18496;52.042;6.812;2022-11-20T07:56:09;32.80;;;15.75;;
31966;SDS011;18496;52.042;6.812;2022-11-20T07:58:13;34.10;;;16.65;;
31966;SDS011;18496;52.042;6.812;2022-11-20T08:00:17;30.10;;;15.65;;
31966;SDS011;18496;52.042;6.812;2022-11-20T08:02:21;30.55;;;15.73;;
31966;SDS011;18496;52.042;6.812;2022-11-20T08:04:24;48.50;;;18.27;;
31966;SDS011;18496;52.042;6.812;2022-11-20T08:06:28;40.63;;;19.42;;
31966;SDS011;18496;52.042;6.812;2022-11-20T08:08:32;38.35;;;18.85;;
31966;SDS011;18496;52.042;6.812;2022-11-20T08:10:36;36.30;;;18.70;;
31966;SDS011;18496;52.042;6.812;2022-11-20T08:12:46;37.35;;;18.42;;
31966;SDS011;18496;52.042;6.812;2022-11-20T08:15:10;37.05;;;18.00;;
31966;SDS011;18496;52.042;6.812;2022-11-20T08:17:13;42.55;;;18.25;;
31966;SDS011;18496;52.042;6.812;2022-11-20T08:19:17;35.53;;;18.17;;
31966;SDS011;18496;52.042;6.812;2022-11-20T08:21:21;36.20;;;17.00;;
31966;SDS011;18496;52.042;6.812;2022-11-20T08:23:25;43.72;;;19.17;;
31966;SDS011;18496;52.042;6.812;2022-11-20T08:25:29;36.15;;;18.25;;
31966;SDS011;18496;52.042;6.812;2022-11-20T08:27:33;38.70;;;17.55;;
31966;SDS011;18496;52.042;6.812;2022-11-20T08:29:36;41.65;;;20.88;;
31966;SDS011;18496;52.042;6.812;2022-11-20T08:31:40;44.30;;;22.45;;
31966;SDS011;18496;52.042;6.812;2022-11-20T08:33:44;45.33;;;21.75;;
31966;SDS011;18496;52.042;6.812;2022-11-20T08:35:47;46.80;;;23.10;;
31966;SDS011;18496;52.042;6.812;2022-11-20T08:37:51;47.35;;;23.13;;
31966;SDS011;18496;52.042;6.812;2022-11-20T08:39:54;51.33;;;22.85;;
31966;SDS011;18496;52.042;6.812;2022-11-20T08:41:59;49.90;;;24.42;;
31966;SDS011;18496;52.042;6.812;2022-11-20T08:44:06;54.35;;;24.00;;
31966;SDS011;18496;52.042;6.812;2022-11-20T08:46:11;62.20;;;26.05;;
31966;SDS011;18496;52.042;6.812;2022-11-20T08:48:14;58.33;;;26.23;;
31966;SDS011;18496;52.042;6.812;2022-11-20T08:50:21;57.72;;;23.58;;
31966;SDS011;18496;52.042;6.812;2022-11-20T08:52:25;47.83;;;23.38;;
31966;SDS011;18496;52.042;6.812;2022-11-20T08:54:29;60.03;;;25.15;;
31966;SDS011;18496;52.042;6.812;2022-11-20T08:56:33;50.80;;;22.85;;
31966;SDS011;18496;52.042;6.812;2022-11-20T08:58:38;53.38;;;23.50;;
31966;SDS011;18496;52.042;6.812;2022-11-20T09:00:42;51.13;;;23.85;;
31966;SDS011;18496;52.042;6.812;2022-11-20T09:02:45;47.85;;;24.15;;
31966;SDS011;18496;52.042;6.812;2022-11-20T09:04:52;51.35;;;25.08;;
31966;SDS011;18496;52.042;6.812;2022-11-20T09:06:56;53.30;;;24.70;;
31966;SDS011;18496;52.042;6.812;2022-11-20T09:09:00;55.40;;;24.88;;
31966;SDS011;18496;52.042;6.812;2022-11-20T09:11:03;47.80;;;22.45;;
31966;SDS011;18496;52.042;6.812;2022-11-20T09:13:08;53.85;;;25.08;;
31966;SDS011;18496;52.042;6.812;2022-11-20T09:15:11;48.97;;;23.80;;
31966;SDS011;18496;52.042;6.812;2022-11-20T09:17:15;55.30;;;24.83;;
31966;SDS011;18496;52.042;6.812;2022-11-20T09:19:19;53.38;;;24.02;;
31966;SDS011;18496;52.042;6.812;2022-11-20T09:21:25;47.88;;;22.15;;
31966;SDS011;18496;52.042;6.812;2022-11-20T09:23:32;44.83;;;22.55;;
31966;SDS011;18496;52.042;6.812;2022-11-20T09:25:37;44.92;;;22.75;;
31966;SDS011;18496;52.042;6.812;2022-11-20T09:27:41;44.75;;;22.30;;
31966;SDS011;18496;52.042;6.812;2022-11-20T09:29:47;43.63;;;21.33;;
31966;SDS011;18496;52.042;6.812;2022-11-20T09:31:50;46.50;;;21.30;;
31966;SDS011;18496;52.042;6.812;2022-11-20T09:33:54;50.75;;;23.95;;
31966;SDS011;18496;52.042;6.812;2022-11-20T09:35:58;53.15;;;22.25;;
31966;SDS011;18496;52.042;6.812;2022-11-20T09:38:05;54.67;;;25.85;;
31966;SDS011;18496;52.042;6.812;2022-11-20T09:40:20;42.75;;;22.42;;
31966;SDS011;18496;52.042;6.812;2022-11-20T09:44:49;48.88;;;23.35;;
31966;SDS011;18496;52.042;6.812;2022-11-20T09:46:55;43.00;;;21.15;;
31966;SDS011;18496;52.042;6.812;2022-11-20T09:53:54;46.45;;;21.45;;
31966;SDS011;18496;52.042;6.812;2022-11-20T09:56:08;54.33;;;23.42;;
31966;SDS011;18496;52.042;6.812;2022-11-20T09:58:47;48.35;;;21.90;;
31966;SDS011;18496;52.042;6.812;2022-11-20T10:00:45;48.83;;;21.63;;
31966;SDS011;18496;52.042;6.812;2022-11-20T10:03:01;53.05;;;22.65;;
31966;SDS011;18496;52.042;6.812;2022-11-20T10:05:15;44.35;;;22.25;;
31966;SDS011;18496;52.042;6.812;2022-11-20T10:07:22;42.47;;;20.10;;
31966;SDS011;18496;52.042;6.812;2022-11-20T10:09:31;37.23;;;18.93;;
31966;SDS011;18496;52.042;6.812;2022-11-20T10:11:46;43.10;;;20.33;;
31966;SDS011;18496;52.042;6.812;2022-11-20T10:16:25;40.97;;;19.23;;
31966;SDS011;18496;52.042;6.812;2022-11-20T10:25:40;43.17;;;18.90;;
31966;SDS011;18496;52.042;6.812;2022-11-20T10:30:14;37.53;;;18.92;;
31966;SDS011;18496;52.042;6.812;2022-11-20T10:32:24;42.42;;;19.52;;
31966;SDS011;18496;52.042;6.812;2022-11-20T10:34:42;42.47;;;20.30;;
31966;SDS011;18496;52.042;6.812;2022-11-20T10:37:01;36.75;;;18.58;;
31966;SDS011;18496;52.042;6.812;2022-11-20T10:41:28;31.60;;;16.70;;
31966;SDS011;18496;52.042;6.812;2022-11-20T10:43:37;34.10;;;16.65;;
31966;SDS011;18496;52.042;6.812;2022-11-20T10:45:56;41.28;;;21.27;;
31966;SDS011;18496;52.042;6.812;2022-11-20T10:50:11;37.97;;;18.27;;
31966;SDS011;18496;52.042;6.812;2022-11-20T10:52:28;31.63;;;16.27;;
31966;SDS011;18496;52.042;6.812;2022-11-20T11:01:56;33.03;;;15.73;;
31966;SDS011;18496;52.042;6.812;2022-11-20T11:03:59;36.22;;;20.30;;
31966;SDS011;18496;52.042;6.812;2022-11-20T11:06:08;31.40;;;16.95;;
31966;SDS011;18496;52.042;6.812;2022-11-20T11:08:17;31.15;;;15.73;;
31966;SDS011;18496;52.042;6.812;2022-11-20T11:13:05;27.90;;;14.30;;
31966;SDS011;18496;52.042;6.812;2022-11-20T11:15:42;32.13;;;15.48;;
31966;SDS011;18496;52.042;6.812;2022-11-20T11:17:46;32.67;;;16.85;;
31966;SDS011;18496;52.042;6.812;2022-11-20T11:20:24;33.92;;;16.25;;
31966;SDS011;18496;52.042;6.812;2022-11-20T11:22:21;30.50;;;15.75;;
31966;SDS011;18496;52.042;6.812;2022-11-20T11:24:28;26.30;;;14.32;;
31966;SDS011;18496;52.042;6.812;2022-11-20T11:26:33;27.92;;;13.50;;
31966;SDS011;18496;52.042;6.812;2022-11-20T11:28:36;26.73;;;13.98;;
31966;SDS011;18496;52.042;6.812;2022-11-20T11:30:43;27.35;;;13.75;;
31966;SDS011;18496;52.042;6.812;2022-11-20T11:32:47;27.55;;;14.10;;
31966;SDS011;18496;52.042;6.812;2022-11-20T11:34:58;32.60;;;15.60;;
31966;SDS011;18496;52.042;6.812;2022-11-20T11:37:16;33.10;;;15.00;;
31966;SDS011;18496;52.042;6.812;2022-11-20T11:39:22;31.35;;;14.45;;
31966;SDS011;18496;52.042;6.812;2022-11-20T11:41:28;26.98;;;14.88;;
31966;SDS011;18496;52.042;6.812;2022-11-20T11:43:40;26.20;;;14.57;;
31966;SDS011;18496;52.042;6.812;2022-11-20T11:46:23;30.65;;;15.32;;
31966;SDS011;18496;52.042;6.812;2022-11-20T11:48:30;25.50;;;13.85;;
31966;SDS011;18496;52.042;6.812;2022-11-20T11:50:34;29.73;;;15.05;;
31966;SDS011;18496;52.042;6.812;2022-11-20T11:55:18;28.65;;;14.05;;
31966;SDS011;18496;52.042;6.812;2022-11-20T12:00:14;26.98;;;15.05;;
31966;SDS011;18496;52.042;6.812;2022-11-20T12:02:25;27.05;;;14.95;;
31966;SDS011;18496;52.042;6.812;2022-11-20T12:07:03;28.52;;;13.65;;
31966;SDS011;18496;52.042;6.812;2022-11-20T12:09:21;31.88;;;14.80;;
31966;SDS011;18496;52.042;6.812;2022-11-20T12:13:52;37.63;;;17.55;;
31966;SDS011;18496;52.042;6.812;2022-11-20T12:16:02;31.92;;;16.13;;
31966;SDS011;18496;52.042;6.812;2022-11-20T12:18:09;30.00;;;14.88;;
31966;SDS011;18496;52.042;6.812;2022-11-20T12:20:18;31.42;;;16.42;;
31966;SDS011;18496;52.042;6.812;2022-11-20T12:22:37;33.08;;;15.52;;
31966;SDS011;18496;52.042;6.812;2022-11-20T12:25:12;29.75;;;15.00;;
31966;SDS011;18496;52.042;6.812;2022-11-20T12:34:27;29.55;;;14.73;;
31966;SDS011;18496;52.042;6.812;2022-11-20T12:44:19;39.63;;;18.17;;
31966;SDS011;18496;52.042;6.812;2022-11-20T12:47:08;32.38;;;15.55;;
31966;SDS011;18496;52.042;6.812;2022-11-20T12:52:03;36.90;;;14.75;;
31966;SDS011;18496;52.042;6.812;2022-11-20T12:57:01;37.05;;;16.35;;
31966;SDS011;18496;52.042;6.812;2022-11-20T12:59:39;30.00;;;14.82;;
31966;SDS011;18496;52.042;6.812;2022-11-20T13:02:35;33.63;;;14.65;;
31966;SDS011;18496;52.042;6.812;2022-11-20T13:06:40;29.98;;;13.70;;
31966;SDS011;18496;52.042;6.812;2022-11-20T13:08:49;27.58;;;13.77;;
31966;SDS011;18496;52.042;6.812;2022-11-20T13:11:02;29.95;;;15.57;;
31966;SDS011;18496;52.042;6.812;2022-11-20T13:13:18;29.33;;;14.38;;
31966;SDS011;18496;52.042;6.812;2022-11-20T13:15:44;27.75;;;15.00;;
31966;SDS011;18496;52.042;6.812;2022-11-20T13:17:59;32.78;;;15.73;;
31966;SDS011;18496;52.042;6.812;2022-11-20T13:20:05;32.05;;;15.05;;
31966;SDS011;18496;52.042;6.812;2022-11-20T13:22:23;33.67;;;15.25;;
31966;SDS011;18496;52.042;6.812;2022-11-20T13:24:31;32.25;;;15.25;;
31966;SDS011;18496;52.042;6.812;2022-11-20T13:26:35;35.67;;;17.60;;
31966;SDS011;18496;52.042;6.812;2022-11-20T13:28:39;42.85;;;21.77;;
31966;SDS011;18496;52.042;6.812;2022-11-20T13:30:50;40.78;;;20.73;;
31966;SDS011;18496;52.042;6.812;2022-11-20T13:32:58;41.15;;;19.92;;